Time;durP1;ratioP1;P1;durP2;ratioP2;P2;SDS_P1;SDS_P2;PMS_P1;PMS_P2;Temp;Humidity;BMP_temperature;BMP_pressure;BME280_temperature;BME280_humidity;BME280_pressure;Samples;Min_cycle;Max_cycle;Signal;HPM_P1;HPM_P2
2022/08/22 00:00:24;;;;;;;5.85;0.50;;;;;;;;;;4885800;29;20040;-75
2022/08/22 00:03:00;;;;;;;0.32;0.20;;;;;;;;;;4885233;29;20104;-85
2022/08/22 00:05:40;;;;;;;1.27;0.43;;;;;;;;;;4885092;29;20370;-86
2022/08/22 00:08:25;;;;;;;0.30;0.10;;;;;;;;;;4885966;29;20032;-87
2022/08/22 00:11:05;;;;;;;0.30;0.20;;;;;;;;;;4885564;29;20033;-79
2022/08/22 00:13:35;;;;;;;0.93;0.40;;;;;;;;;;4885532;29;20025;-85
2022/08/22 00:16:07;;;;;;;1.73;0.50;;;;;;;;;;4890343;29;20029;-79
2022/08/22 00:18:37;;;;;;;0.60;0.30;;;;;;;;;;4887445;29;20043;-81
2022/08/22 00:21:16;;;;;;;0.77;0.30;;;;;;;;;;4900714;29;20080;-79
2022/08/22 00:24:12;;;;;;;2.88;0.30;;;;;;;;;;4884770;29;20389;-85
2022/08/22 00:26:39;;;;;;;1.08;0.30;;;;;;;;;;4851894;29;20467;-79
2022/08/22 00:29:08;;;;;;;0.60;0.20;;;;;;;;;;4901778;29;20076;-88
2022/08/22 00:31:46;;;;;;;0.77;0.30;;;;;;;;;;4885121;29;20029;-80
2022/08/22 00:34:15;;;;;;;0.55;0.20;;;;;;;;;;4883307;29;20083;-80
2022/08/22 00:36:50;;;;;;;0.75;0.30;;;;;;;;;;4901683;29;20032;-86
2022/08/22 00:39:19;;;;;;;0.60;0.20;;;;;;;;;;4884714;29;20029;-76
2022/08/22 00:42:04;;;;;;;0.43;0.20;;;;;;;;;;4883936;29;20040;-83
2022/08/22 00:44:42;;;;;;;0.73;0.30;;;;;;;;;;4884571;29;20068;-81
2022/08/22 00:47:08;;;;;;;0.35;0.10;;;;;;;;;;4909721;29;20107;-85
2022/08/22 00:49:34;;;;;;;0.50;0.20;;;;;;;;;;4919710;29;20465;-84
2022/08/22 00:52:10;;;;;;;0.55;0.20;;;;;;;;;;4918484;29;20115;-86
2022/08/22 00:54:36;;;;;;;0.75;0.20;;;;;;;;;;4919707;29;20028;-85
2022/08/22 00:57:17;;;;;;;0.80;0.10;;;;;;;;;;4921642;29;20127;-86
2022/08/22 00:59:58;;;;;;;0.93;0.20;;;;;;;;;;4917547;29;20036;-80
2022/08/22 01:02:26;;;;;;;0.75;0.30;;;;;;;;;;4918120;29;20028;-83
2022/08/22 01:05:10;;;;;;;0.25;0.15;;;;;;;;;;4919525;29;20024;-86
2022/08/22 01:07:42;;;;;;;3.50;0.20;;;;;;;;;;4918562;29;20501;-86
2022/08/22 01:10:22;;;;;;;0.30;0.10;;;;;;;;;;4918306;29;20028;-84
2022/08/22 01:12:55;;;;;;;0.47;0.13;;;;;;;;;;4918977;29;20476;-84
2022/08/22 01:15:23;;;;;;;1.95;0.10;;;;;;;;;;4918680;29;20044;-84
2022/08/22 01:17:52;;;;;;;0.73;0.10;;;;;;;;;;4918658;29;20469;-85
2022/08/22 01:20:35;;;;;;;0.20;0.05;;;;;;;;;;4918406;29;20047;-85
2022/08/22 01:23:19;;;;;;;0.10;0.03;;;;;;;;;;4918995;29;20135;-85
2022/08/22 01:26:03;;;;;;;0.30;0.03;;;;;;;;;;4918136;29;20032;-77
2022/08/22 01:28:48;;;;;;;0.75;0.10;;;;;;;;;;4918447;29;20067;-85
2022/08/22 01:31:33;;;;;;;1.02;0.05;;;;;;;;;;4920046;29;20063;-85
2022/08/22 01:34:02;;;;;;;0.57;0.03;;;;;;;;;;4917712;29;20024;-85
2022/08/22 01:36:28;;;;;;;0.85;0.10;;;;;;;;;;4918210;29;20119;-85
2022/08/22 01:39:18;;;;;;;0.65;0.10;;;;;;;;;;4918511;29;20504;-79
2022/08/22 01:42:08;;;;;;;0.17;0.08;;;;;;;;;;4917505;29;20032;-84
2022/08/22 01:44:46;;;;;;;1.50;0.20;;;;;;;;;;4911907;29;20036;-82
2022/08/22 01:47:42;;;;;;;0.47;0.10;;;;;;;;;;4908687;29;20060;-85
2022/08/22 01:50:16;;;;;;;0.43;0.10;;;;;;;;;;4876012;29;20040;-86
2022/08/22 01:52:45;;;;;;;0.20;0.00;;;;;;;;;;4884180;29;20033;-86
2022/08/22 01:55:32;;;;;;;0.35;0.10;;;;;;;;;;4884765;29;20557;-86
2022/08/22 01:58:02;;;;;;;0.43;0.03;;;;;;;;;;4885196;29;20028;-86
2022/08/22 02:00:32;;;;;;;0.75;0.10;;;;;;;;;;4883543;29;20512;-86
2022/08/22 02:03:03;;;;;;;0.57;0.17;;;;;;;;;;4883325;29;20072;-86
2022/08/22 02:05:32;;;;;;;1.02;0.00;;;;;;;;;;4883699;29;20478;-84
2022/08/22 02:08:18;;;;;;;0.15;0.00;;;;;;;;;;4883994;29;20043;-86
2022/08/22 02:11:05;;;;;;;0.25;0.10;;;;;;;;;;4883422;29;20025;-84
2022/08/22 02:13:32;;;;;;;0.13;0.10;;;;;;;;;;4883330;29;20500;-82
2022/08/22 02:16:06;;;;;;;0.47;0.10;;;;;;;;;;4882637;29;20032;-86
2022/08/22 02:18:41;;;;;;;0.00;0.00;;;;;;;;;;4899792;29;20032;-86
2022/08/22 02:21:27;;;;;;;0.50;0.10;;;;;;;;;;4882091;29;20131;-85
2022/08/22 02:23:56;;;;;;;0.10;0.10;;;;;;;;;;4882104;29;20048;-80
2022/08/22 02:26:42;;;;;;;2.50;0.10;;;;;;;;;;4882793;29;20493;-77
2022/08/22 02:29:19;;;;;;;0.85;0.20;;;;;;;;;;4882443;29;20028;-84
2022/08/22 02:31:53;;;;;;;0.10;0.00;;;;;;;;;;4882550;29;20551;-84
2022/08/22 02:34:39;;;;;;;0.25;0.10;;;;;;;;;;4883098;29;20033;-77
2022/08/22 02:37:08;;;;;;;0.38;0.10;;;;;;;;;;4882187;29;20025;-84
2022/08/22 02:39:38;;;;;;;3.42;0.30;;;;;;;;;;4883506;29;20051;-80
2022/08/22 02:42:22;;;;;;;0.20;0.10;;;;;;;;;;4899487;29;20028;-84
2022/08/22 02:44:52;;;;;;;0.43;0.10;;;;;;;;;;4900137;29;20091;-84
2022/08/22 02:47:33;;;;;;;2.20;0.17;;;;;;;;;;4882732;29;20052;-84
2022/08/22 02:50:05;;;;;;;0.20;0.10;;;;;;;;;;4882985;29;20079;-84
2022/08/22 02:52:41;;;;;;;1.05;0.17;;;;;;;;;;4882894;29;20041;-85
2022/08/22 02:55:28;;;;;;;0.30;0.10;;;;;;;;;;4883135;29;20130;-80
2022/08/22 02:58:05;;;;;;;0.25;0.00;;;;;;;;;;4881565;29;20036;-78
2022/08/22 03:00:42;;;;;;;0.20;0.10;;;;;;;;;;4882746;29;20072;-84
2022/08/22 03:03:11;;;;;;;0.20;0.05;;;;;;;;;;4882789;29;20039;-85
2022/08/22 03:05:37;;;;;;;0.30;0.10;;;;;;;;;;4883161;29;20055;-84
2022/08/22 03:08:13;;;;;;;0.25;0.00;;;;;;;;;;4882742;29;20123;-86
2022/08/22 03:10:41;;;;;;;0.15;0.10;;;;;;;;;;4885097;29;20040;-86
2022/08/22 03:13:10;;;;;;;0.10;0.00;;;;;;;;;;4883860;29;20033;-80
2022/08/22 03:15:49;;;;;;;0.22;0.03;;;;;;;;;;4882605;29;20059;-85
2022/08/22 03:18:23;;;;;;;0.30;0.10;;;;;;;;;;4882732;29;20025;-83
2022/08/22 03:20:59;;;;;;;0.68;0.10;;;;;;;;;;4882085;29;20041;-84
2022/08/22 03:23:42;;;;;;;0.95;0.10;;;;;;;;;;4882422;29;20077;-81
2022/08/22 03:26:13;;;;;;;0.17;0.10;;;;;;;;;;4881690;29;20096;-79
2022/08/22 03:28:45;;;;;;;0.20;0.10;;;;;;;;;;4898989;29;20052;-84
2022/08/22 03:31:11;;;;;;;0.22;0.10;;;;;;;;;;4883383;29;20098;-81
2022/08/22 03:33:37;;;;;;;0.43;0.10;;;;;;;;;;4904778;29;20025;-84
2022/08/22 03:36:08;;;;;;;0.43;0.10;;;;;;;;;;4902250;29;20037;-83
2022/08/22 03:38:34;;;;;;;0.35;0.10;;;;;;;;;;4902625;29;20492;-83
2022/08/22 03:41:00;;;;;;;0.40;0.10;;;;;;;;;;4885625;29;20474;-83
2022/08/22 03:43:45;;;;;;;2.40;0.13;;;;;;;;;;4901971;29;20076;-83
2022/08/22 03:46:22;;;;;;;0.73;0.20;;;;;;;;;;4886206;29;20054;-83
2022/08/22 03:49:07;;;;;;;0.70;0.30;;;;;;;;;;4919444;29;20039;-83
2022/08/22 03:51:44;;;;;;;0.43;0.13;;;;;;;;;;4919746;29;20036;-85
2022/08/22 03:54:14;;;;;;;0.52;0.20;;;;;;;;;;4918784;29;20099;-77
2022/08/22 03:56:58;;;;;;;0.47;0.10;;;;;;;;;;4918847;29;20036;-77
2022/08/22 03:59:43;;;;;;;0.60;0.20;;;;;;;;;;4918480;29;20033;-76
2022/08/22 04:02:29;;;;;;;0.30;0.10;;;;;;;;;;4920096;29;20036;-76
2022/08/22 04:05:14;;;;;;;0.35;0.20;;;;;;;;;;4920380;29;20031;-79
2022/08/22 04:07:58;;;;;;;0.35;0.10;;;;;;;;;;4918419;29;20024;-84
2022/08/22 04:10:32;;;;;;;0.63;0.20;;;;;;;;;;4918271;29;20028;-84
2022/08/22 04:13:27;;;;;;;0.63;0.25;;;;;;;;;;4919400;29;20032;-83
2022/08/22 04:16:06;;;;;;;0.60;0.20;;;;;;;;;;4891898;29;20497;-84
2022/08/22 04:18:40;;;;;;;0.85;0.20;;;;;;;;;;4919127;29;20377;-82
2022/08/22 04:21:24;;;;;;;0.45;0.10;;;;;;;;;;4920269;29;20024;-81
2022/08/22 04:23:59;;;;;;;0.13;0.10;;;;;;;;;;4919158;29;20020;-78
2022/08/22 04:26:32;;;;;;;0.25;0.15;;;;;;;;;;4918691;29;20062;-84
2022/08/22 04:29:04;;;;;;;0.38;0.20;;;;;;;;;;4919777;29;20043;-82
2022/08/22 04:31:33;;;;;;;0.20;0.10;;;;;;;;;;4918713;29;20032;-81
2022/08/22 04:34:06;;;;;;;0.20;0.10;;;;;;;;;;4919883;29;20030;-85
2022/08/22 04:36:37;;;;;;;0.93;0.27;;;;;;;;;;4918344;29;20027;-82
2022/08/22 04:39:18;;;;;;;0.30;0.10;;;;;;;;;;4919242;29;20276;-86
2022/08/22 04:42:05;;;;;;;0.70;0.20;;;;;;;;;;4920189;29;20503;-79
2022/08/22 04:44:31;;;;;;;0.22;0.10;;;;;;;;;;4902241;29;20032;-83
2022/08/22 04:47:07;;;;;;;0.20;0.10;;;;;;;;;;4911161;29;20057;-82
2022/08/22 04:49:39;;;;;;;0.43;0.10;;;;;;;;;;4884119;29;20040;-82
2022/08/22 04:52:24;;;;;;;0.35;0.10;;;;;;;;;;4883688;29;20478;-82
2022/08/22 04:54:53;;;;;;;0.47;0.10;;;;;;;;;;4884458;29;20466;-83
2022/08/22 04:57:24;;;;;;;0.57;0.20;;;;;;;;;;4883498;29;20127;-81
2022/08/22 04:59:50;;;;;;;0.95;0.30;;;;;;;;;;4883463;29;20379;-83
2022/08/22 05:02:21;;;;;;;0.50;0.20;;;;;;;;;;4884381;29;20028;-84
2022/08/22 05:04:50;;;;;;;1.02;0.20;;;;;;;;;;4884233;29;20120;-84
2022/08/22 05:07:18;;;;;;;0.60;0.43;;;;;;;;;;4884298;29;20040;-83
2022/08/22 05:09:46;;;;;;;0.47;0.20;;;;;;;;;;4884036;29;20036;-81
2022/08/22 05:12:14;;;;;;;1.20;0.20;;;;;;;;;;4883644;29;20035;-81
2022/08/22 05:14:42;;;;;;;0.68;0.20;;;;;;;;;;4883675;29;20044;-79
2022/08/22 05:17:12;;;;;;;0.50;0.22;;;;;;;;;;4883720;29;20410;-83
2022/08/22 05:19:39;;;;;;;0.47;0.30;;;;;;;;;;4884027;29;20040;-83
2022/08/22 05:22:09;;;;;;;0.55;0.20;;;;;;;;;;4883571;29;20024;-84
2022/08/22 05:24:37;;;;;;;0.30;0.15;;;;;;;;;;4883717;29;20133;-83
2022/08/22 05:27:10;;;;;;;0.32;0.13;;;;;;;;;;4883323;29;20081;-82
2022/08/22 05:29:38;;;;;;;0.77;0.40;;;;;;;;;;4883092;29;20040;-82
2022/08/22 05:32:06;;;;;;;0.50;0.20;;;;;;;;;;4900124;29;20051;-82
2022/08/22 05:34:36;;;;;;;0.47;0.28;;;;;;;;;;4883031;29;20029;-80
2022/08/22 05:37:05;;;;;;;0.50;0.20;;;;;;;;;;4883379;29;20032;-78
2022/08/22 05:39:32;;;;;;;0.88;0.20;;;;;;;;;;4883989;29;20035;-83
2022/08/22 05:42:03;;;;;;;2.97;0.50;;;;;;;;;;4883566;29;20039;-85
2022/08/22 05:44:36;;;;;;;2.45;0.40;;;;;;;;;;4883349;29;20033;-85
2022/08/22 05:47:05;;;;;;;1.20;0.47;;;;;;;;;;4884306;29;20517;-84
2022/08/22 05:49:34;;;;;;;1.48;0.52;;;;;;;;;;4882909;29;20342;-84
2022/08/22 05:52:00;;;;;;;1.95;0.47;;;;;;;;;;4883271;29;20051;-83
2022/08/22 05:54:29;;;;;;;0.60;0.30;;;;;;;;;;4883155;29;20036;-81
2022/08/22 05:57:03;;;;;;;1.00;0.32;;;;;;;;;;4875713;29;20033;-79
2022/08/22 05:59:30;;;;;;;1.63;0.38;;;;;;;;;;4878190;29;20452;-82
2022/08/22 06:02:05;;;;;;;0.73;0.30;;;;;;;;;;4864668;29;20040;-83
2022/08/22 06:04:39;;;;;;;0.63;0.22;;;;;;;;;;4864829;29;20031;-84
2022/08/22 06:07:08;;;;;;;2.40;0.60;;;;;;;;;;4881199;29;20490;-82
2022/08/22 06:09:40;;;;;;;2.85;0.85;;;;;;;;;;4864610;29;20037;-83
2022/08/22 06:12:06;;;;;;;1.08;0.30;;;;;;;;;;4864261;29;20057;-81
2022/08/22 06:14:45;;;;;;;1.05;0.30;;;;;;;;;;4864066;29;20073;-85
2022/08/22 06:17:15;;;;;;;4.15;0.82;;;;;;;;;;4864544;29;20081;-85
2022/08/22 06:19:44;;;;;;;4.07;0.80;;;;;;;;;;4864996;29;20083;-87
2022/08/22 06:22:13;;;;;;;1.67;0.50;;;;;;;;;;4865218;29;20029;-86
2022/08/22 06:24:39;;;;;;;4.95;1.02;;;;;;;;;;4864564;29;20060;-77
2022/08/22 06:27:11;;;;;;;8.30;0.98;;;;;;;;;;4864007;29;20021;-80
2022/08/22 06:29:44;;;;;;;1.38;0.40;;;;;;;;;;4881005;29;20072;-89
2022/08/22 06:32:15;;;;;;;1.15;0.60;;;;;;;;;;4864387;29;20025;-77
2022/08/22 06:34:43;;;;;;;2.30;0.88;;;;;;;;;;4864290;29;20123;-76
2022/08/22 06:37:11;;;;;;;3.53;0.70;;;;;;;;;;4863235;29;20036;-78
2022/08/22 06:39:40;;;;;;;1.63;0.52;;;;;;;;;;4864423;29;20144;-85
2022/08/22 06:42:07;;;;;;;1.27;0.40;;;;;;;;;;4882823;29;20025;-80
2022/08/22 06:44:34;;;;;;;1.58;0.60;;;;;;;;;;4864989;29;20032;-88
2022/08/22 06:47:01;;;;;;;3.28;1.40;;;;;;;;;;4865075;29;20499;-79
2022/08/22 06:49:28;;;;;;;1.75;0.50;;;;;;;;;;4878864;29;20032;-78
2022/08/22 06:51:58;;;;;;;1.38;0.60;;;;;;;;;;4900347;29;20057;-82
2022/08/22 06:54:26;;;;;;;0.80;0.30;;;;;;;;;;4899942;29;20055;-76
2022/08/22 06:56:54;;;;;;;1.77;0.40;;;;;;;;;;4898425;29;20029;-77
2022/08/22 06:59:23;;;;;;;0.65;0.35;;;;;;;;;;4881677;29;20163;-75
2022/08/22 07:01:57;;;;;;;2.45;0.50;;;;;;;;;;4881458;29;20032;-75
2022/08/22 07:04:25;;;;;;;0.90;0.30;;;;;;;;;;4883706;29;20031;-76
2022/08/22 07:06:53;;;;;;;2.10;0.82;;;;;;;;;;4887720;29;20033;-75
2022/08/22 07:09:19;;;;;;;3.05;0.57;;;;;;;;;;4869324;29;20032;-81
2022/08/22 07:11:47;;;;;;;0.80;0.40;;;;;;;;;;4865658;29;20027;-83
2022/08/22 07:14:16;;;;;;;1.67;0.45;;;;;;;;;;4870619;29;20390;-79
2022/08/22 07:16:43;;;;;;;2.50;0.52;;;;;;;;;;4867408;29;20033;-78
2022/08/22 07:19:12;;;;;;;2.40;0.30;;;;;;;;;;4867434;29;20030;-87
2022/08/22 07:21:43;;;;;;;0.88;0.30;;;;;;;;;;4866683;29;20573;-79
2022/08/22 07:24:12;;;;;;;1.20;0.20;;;;;;;;;;4883365;29;20153;-81
2022/08/22 07:26:46;;;;;;;1.83;0.30;;;;;;;;;;4866231;29;20025;-79
2022/08/22 07:29:24;;;;;;;0.57;0.28;;;;;;;;;;4866631;29;20032;-84
2022/08/22 07:31:53;;;;;;;0.60;0.20;;;;;;;;;;4883508;29;20029;-82
2022/08/22 07:34:20;;;;;;;0.60;0.30;;;;;;;;;;4875130;29;20033;-83
2022/08/22 07:36:49;;;;;;;0.73;0.20;;;;;;;;;;4888519;29;20466;-79
2022/08/22 07:39:25;;;;;;;0.30;0.15;;;;;;;;;;4867430;29;20040;-82
2022/08/22 07:41:51;;;;;;;1.73;0.30;;;;;;;;;;4875865;29;20033;-80
2022/08/22 07:44:20;;;;;;;0.68;0.35;;;;;;;;;;4893012;29;20164;-82
2022/08/22 07:46:59;;;;;;;1.77;0.20;;;;;;;;;;4887657;29;20198;-79
2022/08/22 07:49:29;;;;;;;0.80;0.20;;;;;;;;;;4886839;29;20025;-80
2022/08/22 07:51:57;;;;;;;0.40;0.10;;;;;;;;;;4906477;29;20503;-75
2022/08/22 07:54:30;;;;;;;0.47;0.15;;;;;;;;;;4899841;29;20028;-77
2022/08/22 07:57:03;;;;;;;1.65;0.10;;;;;;;;;;4891010;29;20052;-75
2022/08/22 07:59:30;;;;;;;0.20;0.10;;;;;;;;;;4902177;29;20064;-80
2022/08/22 08:01:58;;;;;;;1.05;0.10;;;;;;;;;;4896593;29;20048;-77
2022/08/22 08:04:28;;;;;;;0.30;0.10;;;;;;;;;;4890207;29;20029;-79
2022/08/22 08:06:56;;;;;;;0.10;0.10;;;;;;;;;;4884346;29;20157;-75
2022/08/22 08:09:23;;;;;;;0.10;0.10;;;;;;;;;;4915439;29;20470;-83
2022/08/22 08:11:51;;;;;;;1.23;0.82;;;;;;;;;;4900302;29;20028;-78
2022/08/22 08:14:19;;;;;;;2.72;0.45;;;;;;;;;;4884143;29;20036;-77
2022/08/22 08:16:53;;;;;;;0.85;0.30;;;;;;;;;;4908867;29;20425;-77
2022/08/22 08:19:20;;;;;;;0.10;0.10;;;;;;;;;;4917986;29;20040;-76
2022/08/22 08:21:48;;;;;;;0.30;0.13;;;;;;;;;;4918142;29;20032;-73
2022/08/22 08:24:17;;;;;;;0.25;0.10;;;;;;;;;;4919644;29;20032;-73
2022/08/22 08:29:35;;;;;;;0.60;0.20;;;;;;;;;;4919011;29;20545;-73
2022/08/22 08:32:01;;;;;;;0.08;0.03;;;;;;;;;;4918602;29;20098;-73
2022/08/22 08:34:28;;;;;;;0.75;0.17;;;;;;;;;;4918974;29;20035;-76
2022/08/22 08:36:56;;;;;;;0.55;0.10;;;;;;;;;;4901844;29;20036;-74
2022/08/22 08:39:28;;;;;;;0.47;0.20;;;;;;;;;;4918822;29;20032;-77
2022/08/22 08:42:00;;;;;;;8.30;0.30;;;;;;;;;;4908765;29;20041;-76
2022/08/22 08:44:45;;;;;;;0.70;0.20;;;;;;;;;;4900021;29;20541;-82
2022/08/22 08:47:15;;;;;;;0.82;0.30;;;;;;;;;;4892810;29;20048;-74
2022/08/22 08:49:59;;;;;;;0.30;0.10;;;;;;;;;;4901618;29;20493;-75
2022/08/22 08:52:44;;;;;;;0.47;0.32;;;;;;;;;;4901927;29;20075;-79
2022/08/22 08:55:28;;;;;;;0.95;0.40;;;;;;;;;;4918846;29;20030;-80
2022/08/22 08:58:15;;;;;;;0.65;0.30;;;;;;;;;;4901660;29;20048;-75
2022/08/22 09:00:44;;;;;;;0.93;0.40;;;;;;;;;;4901711;29;20044;-74
2022/08/22 09:03:18;;;;;;;0.50;0.28;;;;;;;;;;4918400;29;20103;-75
2022/08/22 09:05:44;;;;;;;1.25;0.40;;;;;;;;;;4901600;29;20048;-74
2022/08/22 09:08:13;;;;;;;1.48;0.50;;;;;;;;;;4918663;29;20024;-76
2022/08/22 09:10:39;;;;;;;0.80;0.32;;;;;;;;;;4901679;29;20036;-74
2022/08/22 09:13:12;;;;;;;1.50;0.98;;;;;;;;;;4918533;29;20031;-78
2022/08/22 09:15:47;;;;;;;1.38;0.60;;;;;;;;;;4901547;29;20036;-77
2022/08/22 09:18:13;;;;;;;1.30;0.63;;;;;;;;;;4900840;29;20028;-78
2022/08/22 09:20:49;;;;;;;1.05;0.57;;;;;;;;;;4901604;29;20405;-78
2022/08/22 09:23:34;;;;;;;1.65;0.60;;;;;;;;;;4901978;29;20024;-78
2022/08/22 09:26:03;;;;;;;0.70;0.40;;;;;;;;;;4902327;29;20032;-77
2022/08/22 09:28:29;;;;;;;1.83;0.52;;;;;;;;;;4901383;29;20032;-77
2022/08/22 09:31:04;;;;;;;2.83;0.70;;;;;;;;;;4900936;29;20448;-78
2022/08/22 09:33:42;;;;;;;1.50;0.77;;;;;;;;;;4926726;29;20032;-78
2022/08/22 09:36:21;;;;;;;1.75;0.70;;;;;;;;;;4923075;29;20055;-78
2022/08/22 09:38:59;;;;;;;1.23;0.70;;;;;;;;;;4901077;29;20060;-77
2022/08/22 09:41:35;;;;;;;1.60;0.73;;;;;;;;;;4895250;29;20501;-77
2022/08/22 09:44:14;;;;;;;1.75;0.70;;;;;;;;;;4899423;29;20104;-80
2022/08/22 09:46:46;;;;;;;1.67;0.75;;;;;;;;;;4906932;29;20044;-77
2022/08/22 09:49:21;;;;;;;1.50;0.77;;;;;;;;;;4912520;29;20051;-78
2022/08/22 09:52:04;;;;;;;1.20;0.50;;;;;;;;;;4882484;29;20024;-79
2022/08/22 09:54:34;;;;;;;1.27;0.73;;;;;;;;;;4885472;29;20036;-78
2022/08/22 09:57:13;;;;;;;1.30;0.50;;;;;;;;;;4899434;29;20405;-78
2022/08/22 09:59:40;;;;;;;1.95;0.70;;;;;;;;;;4914396;29;20481;-78
2022/08/22 10:02:33;;;;;;;1.30;0.60;;;;;;;;;;4916600;29;20457;-78
2022/08/22 10:04:59;;;;;;;;;;;;;;;;;;4880600;29;20039;-78
2022/08/22 10:07:44;;;;;;;1.10;0.60;;;;;;;;;;4900726;29;19911;-77
2022/08/22 10:10:23;;;;;;;0.90;0.40;;;;;;;;;;4916592;29;20032;-78
2022/08/22 10:12:49;;;;;;;1.08;0.50;;;;;;;;;;4916235;29;20020;-77
2022/08/22 10:15:23;;;;;;;0.88;0.40;;;;;;;;;;4916389;29;20032;-77
2022/08/22 10:18:07;;;;;;;0.70;0.35;;;;;;;;;;4916251;29;20032;-77
2022/08/22 10:20:46;;;;;;;1.15;0.40;;;;;;;;;;4915679;29;20043;-77
2022/08/22 10:23:28;;;;;;;1.75;0.60;;;;;;;;;;4884502;29;20029;-78
2022/08/22 10:26:21;;;;;;;1.13;0.50;;;;;;;;;;4900626;29;20047;-77
2022/08/22 10:28:55;;;;;;;0.55;0.30;;;;;;;;;;4868143;29;20045;-77
2022/08/22 10:31:40;;;;;;;1.75;0.30;;;;;;;;;;4898732;29;20382;-78
2022/08/22 10:34:12;;;;;;;1.85;0.43;;;;;;;;;;4882264;29;20435;-77
2022/08/22 10:36:47;;;;;;;1.50;0.45;;;;;;;;;;4888649;29;20040;-76
2022/08/22 10:39:18;;;;;;;1.23;0.57;;;;;;;;;;4898673;29;20029;-77
2022/08/22 10:41:56;;;;;;;0.90;0.50;;;;;;;;;;4906398;29;20033;-76
2022/08/22 10:44:29;;;;;;;0.70;0.30;;;;;;;;;;4917569;29;20035;-76
2022/08/22 10:46:59;;;;;;;2.10;0.68;;;;;;;;;;4918177;29;20048;-76
2022/08/22 10:49:25;;;;;;;3.35;0.40;;;;;;;;;;4917583;29;20056;-76
2022/08/22 10:51:56;;;;;;;0.80;0.50;;;;;;;;;;4916923;29;20039;-74
2022/08/22 10:54:35;;;;;;;0.68;0.30;;;;;;;;;;4900135;29;20024;-75
2022/08/22 10:57:17;;;;;;;0.55;0.28;;;;;;;;;;4917012;29;20020;-77
2022/08/22 10:59:59;;;;;;;1.10;0.43;;;;;;;;;;4902552;29;20490;-78
2022/08/22 11:02:46;;;;;;;0.82;0.50;;;;;;;;;;4907533;29;20027;-78
2022/08/22 11:05:24;;;;;;;1.27;0.45;;;;;;;;;;4906852;29;20032;-79
2022/08/22 11:07:57;;;;;;;1.00;0.45;;;;;;;;;;4914410;29;20664;-76
2022/08/22 11:10:49;;;;;;;1.00;0.45;;;;;;;;;;4894552;29;20075;-77
2022/08/22 11:13:24;;;;;;;3.65;0.38;;;;;;;;;;4898833;29;20041;-78
2022/08/22 11:16:00;;;;;;;1.08;0.30;;;;;;;;;;4896884;29;20029;-77
2022/08/22 11:18:35;;;;;;;0.68;0.38;;;;;;;;;;4898569;29;20028;-76
2022/08/22 11:21:11;;;;;;;0.88;0.40;;;;;;;;;;4896912;29;20037;-77
2022/08/22 11:23:44;;;;;;;0.70;0.20;;;;;;;;;;4898974;29;20434;-77
2022/08/22 11:26:12;;;;;;;;;;;;;;;;;;4897106;29;20395;-77
2022/08/22 11:28:55;;;;;;;0.80;0.30;;;;;;;;;;4905698;29;19912;-77
2022/08/22 11:31:28;;;;;;;1.13;0.40;;;;;;;;;;4881411;29;20025;-76
2022/08/22 11:34:08;;;;;;;1.17;0.50;;;;;;;;;;4898601;29;20401;-76
2022/08/22 11:37:04;;;;;;;1.00;0.40;;;;;;;;;;4898035;29;20542;-77
2022/08/22 11:39:36;;;;;;;1.73;0.40;;;;;;;;;;4897860;29;20029;-76
2022/08/22 11:42:03;;;;;;;0.88;0.28;;;;;;;;;;4891410;29;20028;-77
2022/08/22 11:44:50;;;;;;;1.73;0.50;;;;;;;;;;4916500;29;20020;-76
2022/08/22 11:47:19;;;;;;;0.40;0.10;;;;;;;;;;4898980;29;20088;-75
2022/08/22 11:49:52;;;;;;;0.40;0.20;;;;;;;;;;4915164;29;20024;-75
2022/08/22 11:52:22;;;;;;;0.13;0.05;;;;;;;;;;4917891;29;20031;-76
2022/08/22 11:54:51;;;;;;;7.57;0.22;;;;;;;;;;4918586;29;20028;-74
2022/08/22 11:57:19;;;;;;;0.10;0.03;;;;;;;;;;4918449;29;20060;-75
2022/08/22 11:59:45;;;;;;;0.65;0.03;;;;;;;;;;4919927;29;20057;-75
2022/08/22 12:02:18;;;;;;;0.17;0.03;;;;;;;;;;4919635;29;20028;-75
2022/08/22 12:04:52;;;;;;;0.22;0.10;;;;;;;;;;4920237;29;20032;-75
2022/08/22 12:07:25;;;;;;;0.20;0.00;;;;;;;;;;4919512;29;20091;-75
2022/08/22 12:10:00;;;;;;;0.10;0.00;;;;;;;;;;4918454;29;20119;-75
2022/08/22 12:12:26;;;;;;;0.13;0.10;;;;;;;;;;4918289;29;20033;-76
2022/08/22 12:14:57;;;;;;;1.42;0.10;;;;;;;;;;4919634;29;20489;-75
2022/08/22 12:17:42;;;;;;;0.50;0.13;;;;;;;;;;4919536;29;20080;-76
2022/08/22 12:20:11;;;;;;;0.40;0.10;;;;;;;;;;4919392;29;20042;-75
2022/08/22 12:22:49;;;;;;;0.60;0.20;;;;;;;;;;4918078;29;20076;-77
2022/08/22 12:25:35;;;;;;;0.30;0.13;;;;;;;;;;4919575;29;20026;-75
2022/08/22 12:28:19;;;;;;;0.30;0.10;;;;;;;;;;4919205;29;20028;-76
2022/08/22 12:31:04;;;;;;;0.40;0.20;;;;;;;;;;4919228;29;20090;-75
2022/08/22 12:33:30;;;;;;;0.65;0.20;;;;;;;;;;4919703;29;20091;-76
2022/08/22 12:36:15;;;;;;;0.85;0.38;;;;;;;;;;4902008;29;20123;-75
2022/08/22 12:38:50;;;;;;;0.22;0.10;;;;;;;;;;4920420;29;20036;-76
2022/08/22 12:41:19;;;;;;;3.65;0.17;;;;;;;;;;4898951;29;20430;-76
2022/08/22 12:43:45;;;;;;;0.30;0.10;;;;;;;;;;4900249;29;20028;-77
2022/08/22 12:46:23;;;;;;;0.60;0.20;;;;;;;;;;4886136;29;20032;-78
2022/08/22 12:48:53;;;;;;;0.60;0.20;;;;;;;;;;4900251;29;20032;-78
2022/08/22 12:51:38;;;;;;;0.55;0.20;;;;;;;;;;4901003;29;20028;-79
2022/08/22 12:54:22;;;;;;;0.77;0.30;;;;;;;;;;4918609;29;20378;-78
2022/08/22 12:56:55;;;;;;;0.60;0.30;;;;;;;;;;4918118;29;20039;-78
2022/08/22 12:59:21;;;;;;;1.73;0.40;;;;;;;;;;4901219;29;20028;-79
2022/08/22 13:01:49;;;;;;;0.93;0.38;;;;;;;;;;4917968;29;20036;-78
2022/08/22 13:04:16;;;;;;;0.95;0.30;;;;;;;;;;4900262;29;20465;-78
2022/08/22 13:06:49;;;;;;;0.80;0.40;;;;;;;;;;4900944;29;20034;-79
2022/08/22 13:09:44;;;;;;;1.20;0.40;;;;;;;;;;4901597;29;20028;-80
2022/08/22 13:12:25;;;;;;;0.47;0.30;;;;;;;;;;4888630;29;20056;-79
2022/08/22 13:14:53;;;;;;;0.77;0.30;;;;;;;;;;4918442;29;20107;-78
2022/08/22 13:17:21;;;;;;;1.20;0.40;;;;;;;;;;4900332;29;20060;-80
2022/08/22 13:20:08;;;;;;;0.75;0.40;;;;;;;;;;4900882;29;20070;-80
2022/08/22 13:22:34;;;;;;;1.63;0.30;;;;;;;;;;4917864;29;20430;-79
2022/08/22 13:25:05;;;;;;;1.23;0.32;;;;;;;;;;4918134;29;20032;-79
2022/08/22 13:27:31;;;;;;;2.90;0.70;;;;;;;;;;4900707;29;20035;-78
2022/08/22 13:30:10;;;;;;;0.60;0.30;;;;;;;;;;4901014;29;20052;-78
2022/08/22 13:32:48;;;;;;;1.70;0.43;;;;;;;;;;4900459;29;20116;-78
2022/08/22 13:35:23;;;;;;;1.35;0.40;;;;;;;;;;4917057;29;20039;-79
2022/08/22 13:37:51;;;;;;;0.80;0.30;;;;;;;;;;4882064;29;20111;-78
2022/08/22 13:40:28;;;;;;;1.30;0.47;;;;;;;;;;4898361;29;20383;-78
2022/08/22 13:43:01;;;;;;;1.60;0.40;;;;;;;;;;4915458;29;20028;-78
2022/08/22 13:45:28;;;;;;;1.98;0.50;;;;;;;;;;4900286;29;20166;-79
2022/08/22 13:47:59;;;;;;;0.60;0.20;;;;;;;;;;4862520;29;1632395;-79
2022/08/22 13:50:27;;;;;;;0.45;0.20;;;;;;;;;;4900900;29;20042;-79
2022/08/22 13:53:01;;;;;;;0.63;0.25;;;;;;;;;;4918271;29;20473;-78
2022/08/22 13:55:29;;;;;;;1.50;0.32;;;;;;;;;;4901468;29;20397;-77
2022/08/22 13:58:22;;;;;;;1.15;0.30;;;;;;;;;;4918755;29;20079;-78
2022/08/22 14:01:00;;;;;;;0.77;0.37;;;;;;;;;;4879704;29;20040;-78
2022/08/22 14:03:44;;;;;;;1.67;0.40;;;;;;;;;;4900919;29;20277;-77
2022/08/22 14:06:19;;;;;;;1.13;0.43;;;;;;;;;;4901470;29;20114;-78
2022/08/22 14:08:46;;;;;;;2.45;0.40;;;;;;;;;;4901026;29;20091;-78
2022/08/22 14:11:20;;;;;;;1.15;0.40;;;;;;;;;;4917834;29;20099;-77
2022/08/22 14:13:54;;;;;;;1.08;0.50;;;;;;;;;;4900708;29;20032;-78
2022/08/22 14:16:41;;;;;;;1.92;0.40;;;;;;;;;;4901150;29;20032;-79
2022/08/22 14:19:09;;;;;;;1.13;0.50;;;;;;;;;;4872729;29;20044;-79
2022/08/22 14:21:38;;;;;;;1.42;0.38;;;;;;;;;;4901107;29;20514;-80
2022/08/22 14:24:21;;;;;;;1.50;0.50;;;;;;;;;;4898402;29;20122;-78
2022/08/22 14:26:50;;;;;;;0.68;0.32;;;;;;;;;;4894988;29;20028;-77
2022/08/22 14:29:18;;;;;;;1.23;0.52;;;;;;;;;;4900294;29;20024;-76
2022/08/22 14:31:57;;;;;;;1.33;0.43;;;;;;;;;;4917644;29;20039;-76
2022/08/22 14:34:23;;;;;;;0.95;0.38;;;;;;;;;;4917615;29;20020;-78
2022/08/22 14:36:54;;;;;;;2.78;0.50;;;;;;;;;;4900568;29;20504;-80
2022/08/22 14:39:29;;;;;;;3.83;0.65;;;;;;;;;;4917143;29;20028;-79
2022/08/22 14:42:02;;;;;;;0.90;0.50;;;;;;;;;;4897132;29;20474;-77
2022/08/22 14:44:36;;;;;;;1.23;0.43;;;;;;;;;;4897335;29;20020;-77
2022/08/22 14:47:04;;;;;;;2.08;0.70;;;;;;;;;;4898887;29;20285;-78
2022/08/22 14:49:49;;;;;;;1.90;0.40;;;;;;;;;;4896960;29;20032;-78
2022/08/22 14:52:54;;;;;;;1.25;0.50;;;;;;;;;;4902842;29;20031;-78
2022/08/22 14:55:22;;;;;;;1.42;0.50;;;;;;;;;;4840507;29;20067;-76
2022/08/22 14:57:51;;;;;;;2.60;0.60;;;;;;;;;;4840380;29;20042;-77
2022/08/22 15:00:28;;;;;;;0.80;0.30;;;;;;;;;;4870629;29;20056;-77
2022/08/22 15:03:05;;;;;;;1.17;0.50;;;;;;;;;;4918767;29;21557;-78
2022/08/22 15:05:39;;;;;;;0.75;0.30;;;;;;;;;;4907161;29;20051;-77
2022/08/22 15:08:07;;;;;;;1.27;0.60;;;;;;;;;;4907138;29;20035;-77
2022/08/22 15:10:33;;;;;;;3.55;1.65;;;;;;;;;;4905576;29;20027;-77
2022/08/22 15:13:01;;;;;;;0.80;0.30;;;;;;;;;;4890779;29;20397;-77
2022/08/22 15:15:33;;;;;;;1.48;0.30;;;;;;;;;;4882279;29;20393;-77
2022/08/22 15:18:00;;;;;;;0.70;0.20;;;;;;;;;;4904384;29;20047;-78
2022/08/22 15:20:36;;;;;;;1.00;0.40;;;;;;;;;;4905282;29;20293;-77
2022/08/22 15:23:07;;;;;;;0.98;0.40;;;;;;;;;;4906935;29;20021;-77
2022/08/22 15:25:35;;;;;;;0.88;0.40;;;;;;;;;;4916413;29;20024;-77